createdAt,value
2022-10-01T00:01:03.388Z,3.5
2022-10-01T00:02:09.759Z,3.5
2022-10-01T00:03:16.120Z,3.5
2022-10-01T00:04:22.500Z,3.5
2022-10-01T00:05:28.878Z,3.4
2022-10-01T00:06:35.258Z,3.4
2022-10-01T00:07:41.635Z,3.3
2022-10-01T00:08:48.012Z,3.3
2022-10-01T00:09:54.393Z,3.3
2022-10-01T00:11:00.767Z,3.2
2022-10-01T00:12:07.269Z,3.3
2022-10-01T00:13:13.764Z,3.3
2022-10-01T00:14:20.262Z,3.4
2022-10-01T00:15:26.767Z,3.5
2022-10-01T00:16:33.271Z,3.5
2022-10-01T00:17:39.773Z,3.5
2022-10-01T00:18:46.284Z,3.6
2022-10-01T00:19:52.784Z,3.6
2022-10-01T00:20:59.291Z,3.5
2022-10-01T00:22:05.793Z,3.5
2022-10-01T00:23:12.296Z,3.5
2022-10-01T00:24:18.799Z,3.5
2022-10-01T00:25:25.309Z,3.4
2022-10-01T00:26:32.058Z,3.5
2022-10-01T00:27:37.658Z,3.4
2022-10-01T00:28:43.966Z,3.4
2022-10-01T00:29:50.261Z,3.4
2022-10-01T00:30:56.560Z,3.3
2022-10-01T00:32:02.857Z,3.3
2022-10-01T00:33:09.167Z,3.4
2022-10-01T00:34:15.465Z,3.3
2022-10-01T00:35:21.763Z,3.3
2022-10-01T00:36:28.057Z,3.3
2022-10-01T00:37:34.364Z,3.3
2022-10-01T00:38:40.648Z,3.3
2022-10-01T00:39:46.955Z,3.3
2022-10-01T00:40:53.249Z,3.4
2022-10-01T00:41:59.545Z,3.3
2022-10-01T00:43:05.853Z,3.3
2022-10-01T00:44:12.154Z,3.3
2022-10-01T00:45:18.463Z,3.2
2022-10-01T00:46:24.756Z,3.2
2022-10-01T00:47:31.059Z,3.1
2022-10-01T00:48:37.357Z,3.2
2022-10-01T00:49:43.659Z,3.2
2022-10-01T00:50:49.961Z,3.4
2022-10-01T00:51:56.279Z,3.4
2022-10-01T00:53:02.574Z,3.3
2022-10-01T00:54:08.868Z,3.3
2022-10-01T00:55:15.253Z,3.2
2022-10-01T00:56:21.632Z,3.3
2022-10-01T00:57:28.012Z,3.3
2022-10-01T00:58:34.395Z,3.3
2022-10-01T00:59:40.776Z,3.3
2022-10-01T01:00:47.135Z,3.3
2022-10-01T01:01:53.520Z,3.3
2022-10-01T01:02:59.902Z,3.3
2022-10-01T01:04:06.268Z,3.3
2022-10-01T01:05:12.656Z,3.3
2022-10-01T01:06:19.033Z,3.3
2022-10-01T01:07:25.408Z,3.3
2022-10-01T01:08:31.784Z,3.2
2022-10-01T01:09:38.295Z,3.3
2022-10-01T01:10:44.791Z,3.3
2022-10-01T01:11:51.285Z,3.4
2022-10-01T01:12:57.780Z,3.5
2022-10-01T01:14:04.287Z,3.5
2022-10-01T01:15:10.782Z,3.5
2022-10-01T01:16:16.211Z,3.4
2022-10-01T01:17:22.514Z,3.4
2022-10-01T01:18:28.814Z,3.5
2022-10-01T01:19:35.104Z,3.5
2022-10-01T01:20:41.431Z,3.4
2022-10-01T01:21:47.719Z,3.4
2022-10-01T01:22:54.015Z,3.5
2022-10-01T01:24:00.321Z,3.5
2022-10-01T01:25:06.619Z,3.5
2022-10-01T01:26:12.924Z,3.5
2022-10-01T01:27:19.228Z,3.5
2022-10-01T01:28:25.524Z,3.4
2022-10-01T01:29:31.820Z,3.4
2022-10-01T01:30:38.119Z,3.3
2022-10-01T01:31:44.420Z,3.3
2022-10-01T01:32:50.716Z,3.4
2022-10-01T01:33:57.024Z,3.4
2022-10-01T01:35:03.319Z,3.4
2022-10-01T01:36:09.619Z,3.5
2022-10-01T01:37:15.917Z,3.5
2022-10-01T01:38:22.210Z,3.4
2022-10-01T01:39:28.510Z,3.4
2022-10-01T01:40:34.800Z,3.4
2022-10-01T01:41:41.097Z,3.4
2022-10-01T01:42:47.423Z,3.4
2022-10-01T01:43:53.785Z,3.5
2022-10-01T01:45:00.146Z,3.5
2022-10-01T01:46:06.513Z,3.5
2022-10-01T01:47:12.885Z,3.6
2022-10-01T01:48:19.273Z,3.5
2022-10-01T01:49:25.680Z,3.5
2022-10-01T01:50:32.020Z,3.5
2022-10-01T01:51:38.395Z,3.4
2022-10-01T01:52:44.779Z,3.4
2022-10-01T01:53:51.148Z,3.4
2022-10-01T01:54:57.510Z,3.5
2022-10-01T01:56:03.896Z,3.6
2022-10-01T01:57:10.269Z,3.6
2022-10-01T01:58:16.769Z,3.6
2022-10-01T01:59:23.258Z,3.5
2022-10-01T02:00:29.754Z,3.5
2022-10-01T02:01:36.253Z,3.7
2022-10-01T02:02:42.745Z,4
2022-10-01T02:03:49.242Z,4
2022-10-01T02:04:55.737Z,4.2
2022-10-01T02:06:01.161Z,4.3
2022-10-01T02:07:07.460Z,4.3
2022-10-01T02:08:13.759Z,4.1
2022-10-01T02:09:20.055Z,4.1
2022-10-01T02:10:26.353Z,4.1
2022-10-01T02:11:32.668Z,4.1
2022-10-01T02:12:38.941Z,4.2
2022-10-01T02:13:45.251Z,4.2
2022-10-01T02:14:51.541Z,4.4
2022-10-01T02:15:57.838Z,4.6
2022-10-01T02:17:04.130Z,4.7
2022-10-01T02:18:10.425Z,4.8
2022-10-01T02:19:16.726Z,4.8
2022-10-01T02:20:23.033Z,5
2022-10-01T02:21:29.327Z,4.9
2022-10-01T02:22:35.618Z,4.9
2022-10-01T02:23:41.913Z,4.9
2022-10-01T02:24:48.208Z,4.8
2022-10-01T02:25:54.495Z,4.9
2022-10-01T02:27:00.790Z,4.9
2022-10-01T02:28:07.082Z,5
2022-10-01T02:29:13.373Z,5.1
2022-10-01T02:30:19.659Z,5.2
2022-10-01T02:31:25.950Z,5.3
2022-10-01T02:32:32.241Z,5.2
2022-10-01T02:33:38.613Z,5.2
2022-10-01T02:34:44.982Z,5.2
2022-10-01T02:35:51.352Z,5.3
2022-10-01T02:36:57.726Z,5.4
2022-10-01T02:38:04.084Z,5.4
2022-10-01T02:39:10.451Z,5.5
2022-10-01T02:40:16.805Z,5.6
2022-10-01T02:41:23.161Z,5.5
2022-10-01T02:42:29.534Z,5.5
2022-10-01T02:43:35.898Z,5.5
2022-10-01T02:44:42.259Z,5.5
2022-10-01T02:45:48.620Z,5.4
2022-10-01T02:46:54.975Z,5.3
2022-10-01T02:48:01.472Z,5.3
2022-10-01T02:49:06.887Z,5.3
2022-10-01T02:50:13.172Z,5.3
2022-10-01T02:51:19.461Z,5.3
2022-10-01T02:52:25.745Z,5.2
2022-10-01T02:53:32.026Z,5.2
2022-10-01T02:54:38.313Z,5.3
2022-10-01T02:55:44.599Z,5.3
2022-10-01T02:56:50.881Z,5.4
2022-10-01T02:57:57.165Z,5.4
2022-10-01T02:59:03.446Z,5.4
2022-10-01T03:00:09.748Z,5.5
2022-10-01T03:01:16.001Z,5.5
2022-10-01T03:02:22.283Z,5.5
2022-10-01T03:03:28.568Z,5.6
2022-10-01T03:04:34.847Z,5.7
2022-10-01T03:05:41.139Z,5.7
2022-10-01T03:06:47.413Z,5.7
2022-10-01T03:07:53.705Z,5.7
2022-10-01T03:08:59.975Z,5.7
2022-10-01T03:10:06.269Z,5.7
2022-10-01T03:11:12.556Z,5.9
2022-10-01T03:12:18.844Z,5.9
2022-10-01T03:13:25.128Z,5.9
2022-10-01T03:14:31.417Z,5.9
2022-10-01T03:15:37.715Z,6
2022-10-01T03:16:44.057Z,6
2022-10-01T03:17:50.418Z,6
2022-10-01T03:18:56.777Z,6.1
2022-10-01T03:20:03.141Z,6.1
2022-10-01T03:21:09.497Z,6.1
2022-10-01T03:22:15.861Z,6.1
2022-10-01T03:23:22.212Z,6.1
2022-10-01T03:24:28.572Z,6.1
2022-10-01T03:25:34.923Z,6.3
2022-10-01T03:26:41.275Z,6.2
2022-10-01T03:27:47.618Z,6.3
2022-10-01T03:28:53.991Z,6.3
2022-10-01T03:30:00.330Z,6.3
2022-10-01T03:31:06.806Z,6.3
2022-10-01T03:32:12.219Z,6.3
2022-10-01T03:33:18.498Z,6.2
2022-10-01T03:34:24.764Z,6.3
2022-10-01T03:35:31.051Z,6.3
2022-10-01T03:36:37.308Z,6.3
2022-10-01T03:37:43.585Z,6.3
2022-10-01T03:38:49.858Z,6.2
2022-10-01T03:39:56.129Z,6.3
2022-10-01T03:41:02.402Z,6.3
2022-10-01T03:42:08.679Z,6.3
2022-10-01T03:43:14.950Z,6.3
2022-10-01T03:44:21.232Z,6.2
2022-10-01T03:45:27.515Z,6.2
2022-10-01T03:46:33.767Z,6.2
2022-10-01T03:47:40.052Z,6.3
2022-10-01T03:48:46.329Z,6.3
2022-10-01T03:49:52.602Z,6.3
2022-10-01T03:50:58.883Z,6.3
2022-10-01T03:52:05.154Z,6.3
2022-10-01T03:53:11.430Z,6.4
2022-10-01T03:54:17.715Z,6.4
2022-10-01T03:55:23.983Z,6.4
2022-10-01T03:56:30.242Z,6.3
2022-10-01T03:57:36.527Z,6.3
2022-10-01T03:58:42.806Z,6.2
2022-10-01T03:59:49.162Z,6.1
2022-10-01T04:00:55.511Z,6.1
2022-10-01T04:02:01.865Z,6
2022-10-01T04:03:08.213Z,6
2022-10-01T04:04:14.568Z,6
2022-10-01T04:05:20.917Z,6.1
2022-10-01T04:06:27.271Z,6.2
2022-10-01T04:07:33.623Z,6.1
2022-10-01T04:08:39.971Z,6.1
2022-10-01T04:09:46.317Z,6.1
2022-10-01T04:10:52.674Z,6.2
2022-10-01T04:11:59.014Z,6.2
2022-10-01T04:13:05.361Z,6.2
2022-10-01T04:14:11.891Z,6.3
2022-10-01T04:15:17.255Z,6.3
2022-10-01T04:16:23.528Z,6.2
2022-10-01T04:17:29.809Z,6.1
2022-10-01T04:18:36.094Z,6
2022-10-01T04:19:42.363Z,6
2022-10-01T04:20:48.662Z,6.1
2022-10-01T04:21:54.910Z,6.2
2022-10-01T04:23:01.189Z,6.1
2022-10-01T04:24:07.473Z,6.1
2022-10-01T04:25:13.741Z,6.3
2022-10-01T04:26:20.018Z,6.3
2022-10-01T04:27:26.288Z,6.4
2022-10-01T04:28:32.571Z,6.4
2022-10-01T04:29:38.835Z,6.4
2022-10-01T04:30:45.113Z,6.5
2022-10-01T04:31:51.392Z,6.6
2022-10-01T04:32:57.672Z,6.6
2022-10-01T04:34:03.934Z,6.6
2022-10-01T04:35:10.207Z,6.7
2022-10-01T04:36:16.477Z,6.7
2022-10-01T04:37:22.756Z,6.7
2022-10-01T04:38:29.023Z,6.7
2022-10-01T04:39:35.294Z,6.7
2022-10-01T04:40:41.559Z,6.6
2022-10-01T04:41:47.824Z,6.7
2022-10-01T04:42:54.194Z,6.8
2022-10-01T04:44:00.512Z,6.8
2022-10-01T04:45:06.864Z,6.8
2022-10-01T04:46:13.208Z,6.9
2022-10-01T04:47:19.555Z,6.8
2022-10-01T04:48:25.896Z,6.9
2022-10-01T04:49:32.233Z,6.9
2022-10-01T04:50:38.582Z,6.9
2022-10-01T04:51:44.935Z,6.9
2022-10-01T04:52:51.269Z,6.9
2022-10-01T04:53:57.620Z,6.9
2022-10-01T04:55:03.960Z,6.9
2022-10-01T04:56:10.301Z,6.9
2022-10-01T04:57:16.772Z,6.9
2022-10-01T04:58:22.187Z,6.9
2022-10-01T04:59:28.443Z,6.9
2022-10-01T05:00:34.722Z,6.9
2022-10-01T05:01:41.050Z,6.9
2022-10-01T05:02:47.268Z,7
2022-10-01T05:03:53.527Z,7
2022-10-01T05:04:59.793Z,7.1
2022-10-01T05:06:06.061Z,7.1
2022-10-01T05:07:12.324Z,7.1
2022-10-01T05:08:18.599Z,7.2
2022-10-01T05:09:24.859Z,7.2
2022-10-01T05:10:31.174Z,7.3
2022-10-01T05:11:37.383Z,7.2
2022-10-01T05:12:43.659Z,7.2
2022-10-01T05:13:49.915Z,7.2
2022-10-01T05:14:56.178Z,7.1
2022-10-01T05:16:02.456Z,7.1
2022-10-01T05:17:08.715Z,7.2
2022-10-01T05:18:14.986Z,7.2
2022-10-01T05:19:21.240Z,7.2
2022-10-01T05:20:27.517Z,7.1
2022-10-01T05:21:33.815Z,7.2
2022-10-01T05:22:40.052Z,7.2
2022-10-01T05:23:46.339Z,7.2
2022-10-01T05:24:52.594Z,7.2
2022-10-01T05:25:58.975Z,7.2
2022-10-01T05:27:05.282Z,7.2
2022-10-01T05:28:11.674Z,7.2
2022-10-01T05:29:17.991Z,7.3
2022-10-01T05:30:24.320Z,7.3
2022-10-01T05:31:30.668Z,7.4
2022-10-01T05:32:36.995Z,7.4
2022-10-01T05:33:43.341Z,7.4
2022-10-01T05:34:49.687Z,7.5
2022-10-01T05:35:56.029Z,7.5
2022-10-01T05:37:02.356Z,7.6
2022-10-01T05:38:08.690Z,7.7
2022-10-01T05:39:15.032Z,7.7
2022-10-01T05:40:21.496Z,7.8
2022-10-01T05:41:26.888Z,7.8
2022-10-01T05:42:33.149Z,7.9
2022-10-01T05:43:39.412Z,8
2022-10-01T05:44:45.684Z,8
2022-10-01T05:45:51.936Z,8.1
2022-10-01T05:46:58.204Z,8.1
2022-10-01T05:48:04.465Z,8.1
2022-10-01T05:49:10.717Z,8.1
2022-10-01T05:50:16.975Z,8.1
2022-10-01T05:51:23.247Z,8.1
2022-10-01T05:52:29.484Z,8.2
2022-10-01T05:53:35.742Z,8.2
2022-10-01T05:54:42.003Z,8.3
2022-10-01T05:55:48.260Z,8.3
2022-10-01T05:56:54.514Z,8.4
2022-10-01T05:58:00.755Z,8.4
2022-10-01T05:59:07.007Z,8.4
2022-10-01T06:00:13.262Z,8.4
2022-10-01T06:01:19.521Z,8.4
2022-10-01T06:02:25.760Z,8.4
2022-10-01T06:03:32.045Z,8.5
2022-10-01T06:04:38.247Z,8.5
2022-10-01T06:05:44.497Z,8.6
2022-10-01T06:06:50.767Z,8.6
2022-10-01T06:07:57.022Z,8.6
2022-10-01T06:09:03.329Z,8.7
2022-10-01T06:10:09.650Z,8.7
2022-10-01T06:11:15.981Z,8.7
2022-10-01T06:12:22.297Z,8.8
2022-10-01T06:13:28.615Z,8.8
2022-10-01T06:14:34.932Z,8.9
2022-10-01T06:15:41.280Z,8.9
2022-10-01T06:16:47.587Z,8.9
2022-10-01T06:17:53.912Z,8.9
2022-10-01T06:19:00.242Z,8.9
2022-10-01T06:20:06.556Z,8.9
2022-10-01T06:21:12.874Z,9
2022-10-01T06:22:19.198Z,9
2022-10-01T06:23:25.645Z,9.1
2022-10-01T06:24:31.024Z,9.1
2022-10-01T06:25:37.257Z,9.1
2022-10-01T06:26:43.504Z,9.2
2022-10-01T06:27:49.801Z,9.2
2022-10-01T06:28:55.996Z,9.3
2022-10-01T06:30:02.231Z,9.3
2022-10-01T06:31:08.481Z,9.4
2022-10-01T06:32:14.723Z,9.4
2022-10-01T06:33:20.967Z,9.4
2022-10-01T06:34:27.198Z,9.5
2022-10-01T06:35:33.451Z,9.6
2022-10-01T06:36:39.688Z,9.6
2022-10-01T06:37:45.911Z,9.7
2022-10-01T06:38:52.156Z,9.7
2022-10-01T06:39:58.400Z,9.8
2022-10-01T06:41:04.628Z,9.8
2022-10-01T06:42:10.864Z,9.8
2022-10-01T06:43:17.103Z,9.9
2022-10-01T06:44:23.336Z,10
2022-10-01T06:45:29.571Z,10
2022-10-01T06:46:35.818Z,10
2022-10-01T06:47:42.049Z,10.1
2022-10-01T06:48:48.283Z,10.2
2022-10-01T06:49:54.516Z,10.2
2022-10-01T06:51:00.752Z,10.2
2022-10-01T06:52:07.059Z,10.3
2022-10-01T06:53:13.358Z,10.4
2022-10-01T06:54:19.667Z,10.4
2022-10-01T06:55:25.980Z,10.4
2022-10-01T06:56:32.282Z,10.5
2022-10-01T06:57:37.582Z,10.5
2022-10-01T06:58:43.811Z,10.5
2022-10-01T06:59:50.041Z,10.6
2022-10-01T07:00:56.312Z,10.6
2022-10-01T07:02:02.491Z,10.7
2022-10-01T07:03:08.705Z,10.7
2022-10-01T07:04:14.933Z,10.7
2022-10-01T07:05:21.206Z,10.7
2022-10-01T07:06:27.386Z,10.8
2022-10-01T07:07:33.593Z,10.9
2022-10-01T07:08:39.825Z,10.9
2022-10-01T07:09:46.043Z,10.9
2022-10-01T07:10:52.259Z,11
2022-10-01T07:11:58.485Z,11
2022-10-01T07:13:04.706Z,11
2022-10-01T07:14:10.924Z,11.1
2022-10-01T07:15:17.135Z,11.1
2022-10-01T07:16:23.363Z,11.1
2022-10-01T07:17:29.582Z,11.1
2022-10-01T07:18:35.804Z,11.2
2022-10-01T07:19:42.009Z,11.2
2022-10-01T07:20:48.225Z,11.2
2022-10-01T07:21:54.432Z,11.2
2022-10-01T07:23:00.651Z,11.2
2022-10-01T07:24:06.866Z,11.3
2022-10-01T07:25:13.171Z,11.3
2022-10-01T07:26:18.448Z,11.3
2022-10-01T07:27:24.659Z,11.3
2022-10-01T07:28:30.885Z,11.3
2022-10-01T07:29:37.120Z,11.3
2022-10-01T07:30:43.313Z,11.3
2022-10-01T07:31:49.524Z,11.2
2022-10-01T07:32:55.732Z,11.2
2022-10-01T07:34:01.967Z,11.1
2022-10-01T07:35:08.164Z,11.1
2022-10-01T07:36:14.378Z,11.1
2022-10-01T07:37:20.591Z,11
2022-10-01T07:38:26.800Z,11
2022-10-01T07:39:33.020Z,11
2022-10-01T07:40:39.240Z,10.9
2022-10-01T07:41:45.525Z,10.9
2022-10-01T07:42:51.673Z,10.9
2022-10-01T07:43:57.889Z,10.9
2022-10-01T07:45:04.099Z,10.9
2022-10-01T07:46:10.319Z,10.9
2022-10-01T07:47:16.528Z,10.9
2022-10-01T07:48:22.743Z,10.9
2022-10-01T07:49:28.962Z,10.9
2022-10-01T07:50:35.173Z,10.9
2022-10-01T07:51:41.392Z,10.8
2022-10-01T07:52:47.604Z,10.8
2022-10-01T07:53:53.891Z,10.8
2022-10-01T07:54:59.180Z,10.8
2022-10-01T07:56:05.385Z,10.8
2022-10-01T07:57:11.613Z,10.8
2022-10-01T07:58:17.817Z,10.8
2022-10-01T07:59:24.034Z,10.8
2022-10-01T08:00:30.250Z,10.8
2022-10-01T08:01:36.462Z,10.8
2022-10-01T08:02:42.682Z,10.9
2022-10-01T08:03:48.892Z,10.9
2022-10-01T08:04:55.103Z,10.8
2022-10-01T08:06:01.338Z,10.8
2022-10-01T08:07:07.545Z,10.8
2022-10-01T08:08:13.767Z,10.8
2022-10-01T08:09:19.989Z,10.8
2022-10-01T08:10:26.202Z,10.8
2022-10-01T08:11:32.418Z,10.8
2022-10-01T08:12:38.640Z,10.7
2022-10-01T08:13:44.862Z,10.7
2022-10-01T08:14:51.077Z,10.6
2022-10-01T08:15:57.296Z,10.6
2022-10-01T08:17:03.519Z,10.6
2022-10-01T08:18:09.720Z,10.6
2022-10-01T08:19:15.946Z,10.6
2022-10-01T08:20:22.170Z,10.6
2022-10-01T08:21:28.373Z,10.6
2022-10-01T08:22:34.673Z,10.6
2022-10-01T08:23:39.963Z,10.6
2022-10-01T08:24:46.183Z,10.6
2022-10-01T08:25:52.400Z,10.6
2022-10-01T08:26:58.628Z,10.6
2022-10-01T08:28:04.837Z,10.6
2022-10-01T08:29:11.054Z,10.7
2022-10-01T08:30:17.275Z,10.6
2022-10-01T08:31:23.491Z,10.6
2022-10-01T08:32:29.719Z,10.6
2022-10-01T08:33:35.930Z,10.6
2022-10-01T08:34:42.157Z,10.6
2022-10-01T08:35:48.373Z,10.6
2022-10-01T08:36:54.594Z,10.6
2022-10-01T08:38:00.829Z,10.6
2022-10-01T08:39:07.042Z,10.6
2022-10-01T08:40:13.270Z,10.6
2022-10-01T08:41:19.466Z,10.6
2022-10-01T08:42:25.682Z,10.5
2022-10-01T08:43:31.903Z,10.5
2022-10-01T08:44:38.122Z,10.5
2022-10-01T08:45:44.341Z,10.6
2022-10-01T08:46:50.558Z,10.5
2022-10-01T08:47:56.776Z,10.6
2022-10-01T08:49:02.989Z,10.6
2022-10-01T08:50:09.209Z,10.6
2022-10-01T08:51:15.499Z,10.6
2022-10-01T08:52:20.799Z,10.6
2022-10-01T08:53:27.014Z,10.6
2022-10-01T08:54:33.229Z,10.7
2022-10-01T08:55:39.464Z,10.6
2022-10-01T08:56:45.665Z,10.6
2022-10-01T08:57:51.876Z,10.7
2022-10-01T08:58:58.117Z,10.6
2022-10-01T09:00:04.310Z,10.6
2022-10-01T09:01:10.517Z,10.6
2022-10-01T09:02:16.742Z,10.7
2022-10-01T09:03:22.956Z,10.7
2022-10-01T09:04:29.155Z,10.7
2022-10-01T09:05:35.384Z,10.6
2022-10-01T09:06:41.595Z,10.6
2022-10-01T09:07:47.811Z,10.6
2022-10-01T09:08:54.031Z,10.6
2022-10-01T09:10:00.245Z,10.6
2022-10-01T09:11:06.449Z,10.7
2022-10-01T09:12:12.659Z,10.7
2022-10-01T09:13:18.876Z,10.7
2022-10-01T09:14:25.091Z,10.7
2022-10-01T09:15:31.336Z,10.7
2022-10-01T09:16:37.525Z,10.7
2022-10-01T09:17:43.737Z,10.7
2022-10-01T09:18:49.947Z,10.8
2022-10-01T09:19:56.245Z,10.7
2022-10-01T09:21:01.525Z,10.7
2022-10-01T09:22:07.740Z,10.8
2022-10-01T09:23:13.958Z,10.7
2022-10-01T09:24:20.168Z,10.7
2022-10-01T09:25:26.391Z,10.7
2022-10-01T09:26:32.601Z,10.7
2022-10-01T09:27:38.806Z,10.7
2022-10-01T09:28:45.027Z,10.7
2022-10-01T09:29:51.232Z,10.7
2022-10-01T09:30:57.453Z,10.6
2022-10-01T09:32:03.669Z,10.6
2022-10-01T09:33:09.891Z,10.6
2022-10-01T09:34:16.098Z,10.6
2022-10-01T09:35:22.310Z,10.6
2022-10-01T09:36:28.521Z,10.6
2022-10-01T09:37:34.739Z,10.6
2022-10-01T09:38:40.950Z,10.6
2022-10-01T09:39:47.175Z,10.6
2022-10-01T09:40:53.379Z,10.6
2022-10-01T09:41:59.601Z,10.6
2022-10-01T09:43:05.826Z,10.6
2022-10-01T09:44:12.035Z,10.6
2022-10-01T09:45:18.242Z,10.6
2022-10-01T09:46:24.451Z,10.6
2022-10-01T09:47:30.676Z,10.6
2022-10-01T09:48:36.978Z,10.6
2022-10-01T09:49:42.331Z,10.5
2022-10-01T09:50:47.663Z,10.6
2022-10-01T09:51:52.944Z,10.6
2022-10-01T09:52:59.189Z,10.5
2022-10-01T09:54:05.392Z,10.6
2022-10-01T09:55:11.620Z,10.6
2022-10-01T09:56:17.829Z,10.6
2022-10-01T09:57:24.039Z,10.6
2022-10-01T09:58:30.267Z,10.6
2022-10-01T09:59:36.480Z,10.6
2022-10-01T10:00:42.690Z,10.6
2022-10-01T10:01:48.941Z,10.6
2022-10-01T10:02:55.204Z,10.6
2022-10-01T10:04:01.447Z,10.6
2022-10-01T10:05:07.557Z,10.6
2022-10-01T10:06:13.876Z,10.7
2022-10-01T10:07:19.996Z,10.7
2022-10-01T10:08:26.207Z,10.7
2022-10-01T10:09:32.563Z,10.8
2022-10-01T10:10:38.812Z,10.8
2022-10-01T10:11:44.974Z,10.8
2022-10-01T10:12:51.187Z,10.8
2022-10-01T10:13:57.461Z,10.8
2022-10-01T10:15:03.662Z,10.8
2022-10-01T10:16:09.819Z,10.8
2022-10-01T10:17:16.102Z,10.8
2022-10-01T10:18:22.173Z,10.8
2022-10-01T10:19:28.625Z,10.9
2022-10-01T10:20:33.912Z,10.9
2022-10-01T10:21:40.091Z,10.9
2022-10-01T10:22:46.310Z,10.9
2022-10-01T10:23:52.407Z,10.9
2022-10-01T10:24:58.782Z,10.9
2022-10-01T10:26:05.016Z,10.9
2022-10-01T10:27:11.156Z,10.9
2022-10-01T10:28:17.291Z,10.9
2022-10-01T10:29:23.681Z,10.9
2022-10-01T10:30:29.735Z,10.9
2022-10-01T10:31:35.948Z,10.9
2022-10-01T10:32:42.316Z,10.9
2022-10-01T10:33:48.384Z,10.9
2022-10-01T10:34:54.747Z,10.9
2022-10-01T10:36:00.989Z,11
2022-10-01T10:37:07.046Z,11
2022-10-01T10:38:13.393Z,11
2022-10-01T10:39:19.647Z,11
2022-10-01T10:40:25.846Z,11
2022-10-01T10:41:31.922Z,11.1
2022-10-01T10:42:38.145Z,11.1
2022-10-01T10:43:44.534Z,11.2
2022-10-01T10:44:50.745Z,11.2
2022-10-01T10:45:56.951Z,11.2
2022-10-01T10:47:03.163Z,11.3
2022-10-01T10:48:09.354Z,11.3
2022-10-01T10:49:14.735Z,11.2
2022-10-01T10:50:20.958Z,11.2
2022-10-01T10:51:27.162Z,11.2
2022-10-01T10:52:33.332Z,11.3
2022-10-01T10:53:39.620Z,11.3
2022-10-01T10:54:45.792Z,11.3
2022-10-01T10:55:51.909Z,11.4
2022-10-01T10:56:58.185Z,11.4
2022-10-01T10:58:04.309Z,11.4
2022-10-01T10:59:10.595Z,11.4
2022-10-01T11:00:16.861Z,11.4
2022-10-01T11:01:22.964Z,11.4
2022-10-01T11:02:29.217Z,11.5
2022-10-01T11:03:35.434Z,11.4
2022-10-01T11:04:41.616Z,11.4
2022-10-01T11:05:47.813Z,11.5
2022-10-01T11:06:54.028Z,11.5
2022-10-01T11:08:00.257Z,11.6
2022-10-01T11:09:06.460Z,11.6
2022-10-01T11:10:12.687Z,11.5
2022-10-01T11:11:18.881Z,11.6
2022-10-01T11:12:25.128Z,11.6
2022-10-01T11:13:31.311Z,11.6
2022-10-01T11:14:37.526Z,11.6
2022-10-01T11:15:43.745Z,11.6
2022-10-01T11:16:50.029Z,11.6
2022-10-01T11:17:55.300Z,11.5
2022-10-01T11:19:01.568Z,11.4
2022-10-01T11:20:07.800Z,11.5
2022-10-01T11:21:13.948Z,11.6
2022-10-01T11:22:20.135Z,11.6
2022-10-01T11:23:26.345Z,11.6
2022-10-01T11:24:32.565Z,11.6
2022-10-01T11:25:38.757Z,11.6
2022-10-01T11:26:44.976Z,11.6
2022-10-01T11:27:51.282Z,11.6
2022-10-01T11:28:57.430Z,11.7
2022-10-01T11:30:03.607Z,11.7
2022-10-01T11:31:09.820Z,11.8
2022-10-01T11:32:16.029Z,11.8
2022-10-01T11:33:22.240Z,11.8
2022-10-01T11:34:28.451Z,11.9
2022-10-01T11:35:34.728Z,11.9
2022-10-01T11:36:40.944Z,11.9
2022-10-01T11:37:47.128Z,11.9
2022-10-01T11:38:53.307Z,11.9
2022-10-01T11:39:59.509Z,12
2022-10-01T11:41:05.709Z,12
2022-10-01T11:42:11.914Z,12
2022-10-01T11:43:18.123Z,12
2022-10-01T11:44:24.335Z,12.2
2022-10-01T11:45:30.634Z,12.3
2022-10-01T11:46:35.904Z,12.3
2022-10-01T11:47:42.173Z,12.3
2022-10-01T11:48:48.317Z,12.3
2022-10-01T11:49:54.625Z,12.4
2022-10-01T11:51:00.753Z,12.3
2022-10-01T11:52:06.936Z,12.4
2022-10-01T11:53:13.142Z,12.4
2022-10-01T11:54:19.346Z,12.3
2022-10-01T11:55:25.569Z,12.3
2022-10-01T11:56:31.756Z,12.3
2022-10-01T11:57:38.035Z,12.4
2022-10-01T11:58:44.174Z,12.5
2022-10-01T11:59:50.402Z,12.6
2022-10-01T12:00:56.578Z,12.6
2022-10-01T12:02:02.879Z,12.7
2022-10-01T12:03:08.974Z,12.7
2022-10-01T12:04:15.188Z,12.9
2022-10-01T12:05:21.379Z,12.9
2022-10-01T12:06:27.708Z,12.8
2022-10-01T12:07:33.782Z,12.7
2022-10-01T12:08:39.980Z,12.7
2022-10-01T12:09:46.207Z,12.7
2022-10-01T12:10:52.417Z,12.7
2022-10-01T12:11:58.620Z,12.8
2022-10-01T12:13:04.803Z,12.8
2022-10-01T12:14:11.074Z,12.8
2022-10-01T12:15:16.369Z,12.8
2022-10-01T12:16:22.627Z,12.8
2022-10-01T12:17:28.780Z,12.8
2022-10-01T12:18:34.018Z,12.8
2022-10-01T12:19:40.288Z,12.8
2022-10-01T12:20:46.376Z,12.8
2022-10-01T12:21:51.612Z,12.8
2022-10-01T12:22:57.790Z,12.7
2022-10-01T12:24:03.028Z,12.8
2022-10-01T12:25:09.210Z,12.9
2022-10-01T12:26:15.413Z,12.9
2022-10-01T12:27:21.638Z,12.9
2022-10-01T12:28:27.812Z,12.8
2022-10-01T12:29:34.055Z,12.8
2022-10-01T12:30:40.213Z,12.8
2022-10-01T12:31:46.392Z,12.8
2022-10-01T12:32:52.676Z,12.8
2022-10-01T12:33:58.873Z,12.8
2022-10-01T12:35:05.041Z,12.7
2022-10-01T12:36:11.209Z,12.7
2022-10-01T12:37:16.471Z,12.7
2022-10-01T12:38:22.605Z,12.7
2022-10-01T12:39:28.780Z,12.7
2022-10-01T12:40:34.973Z,12.7
2022-10-01T12:41:41.173Z,12.8
2022-10-01T12:42:47.367Z,12.9
2022-10-01T12:43:53.562Z,13
2022-10-01T12:44:59.803Z,13.1
2022-10-01T12:46:05.952Z,13.3
2022-10-01T12:47:12.144Z,13.4
2022-10-01T12:48:18.327Z,13.5
2022-10-01T12:49:24.569Z,13.6
2022-10-01T12:50:30.721Z,13.7
2022-10-01T12:51:35.913Z,13.8
2022-10-01T12:52:42.101Z,13.9
2022-10-01T12:53:48.287Z,14.1
2022-10-01T12:54:54.483Z,14.2
2022-10-01T12:56:00.679Z,14.3
2022-10-01T12:57:06.863Z,14.5
2022-10-01T12:58:13.047Z,14.7
2022-10-01T12:59:19.227Z,14.7
2022-10-01T13:00:25.416Z,14.9
2022-10-01T13:01:31.582Z,14.7
2022-10-01T13:02:37.766Z,14.6
2022-10-01T13:03:43.987Z,14.6
2022-10-01T13:04:50.129Z,14.8
2022-10-01T13:05:55.311Z,15.4
2022-10-01T13:07:01.489Z,15.4
2022-10-01T13:08:07.664Z,15.2
2022-10-01T13:09:13.879Z,15.2
2022-10-01T13:10:20.010Z,15
2022-10-01T13:11:26.165Z,15
2022-10-01T13:12:32.328Z,15.1
2022-10-01T13:13:38.505Z,14.6
2022-10-01T13:14:44.666Z,14.7
2022-10-01T13:15:50.835Z,14.5
2022-10-01T13:16:57.004Z,14.3
2022-10-01T13:18:03.168Z,14.2
2022-10-01T13:19:09.426Z,14
2022-10-01T13:20:14.518Z,14
2022-10-01T13:21:20.675Z,14
2022-10-01T13:22:26.906Z,14
2022-10-01T13:23:33.093Z,14.2
2022-10-01T13:24:39.210Z,14.4
2022-10-01T13:25:45.362Z,14.5
2022-10-01T13:26:51.500Z,14.5
2022-10-01T13:27:57.672Z,14.7
2022-10-01T13:29:03.829Z,14.7
2022-10-01T13:30:09.997Z,14.9
2022-10-01T13:31:16.164Z,14.9
2022-10-01T13:32:22.325Z,14.7
2022-10-01T13:33:28.486Z,14.8
2022-10-01T13:34:33.676Z,14.7
2022-10-01T13:35:39.826Z,14.6
2022-10-01T13:36:45.985Z,14.6
2022-10-01T13:37:52.148Z,14.5
2022-10-01T13:38:58.315Z,14.7
2022-10-01T13:40:04.481Z,14.7
2022-10-01T13:41:10.652Z,14.7
2022-10-01T13:42:16.847Z,14.8
2022-10-01T13:43:23.031Z,14.9
2022-10-01T13:44:29.145Z,14.9
2022-10-01T13:45:35.302Z,15
2022-10-01T13:46:41.469Z,15
2022-10-01T13:47:47.635Z,15
2022-10-01T13:48:52.821Z,15
2022-10-01T13:49:58.980Z,14.8
2022-10-01T13:51:05.153Z,14.7
2022-10-01T13:52:11.371Z,14.8
2022-10-01T13:53:17.513Z,14.8
2022-10-01T13:54:23.693Z,14.7
2022-10-01T13:55:29.805Z,14.7
2022-10-01T13:56:35.994Z,14.7
2022-10-01T13:57:42.216Z,14.7
2022-10-01T13:58:48.368Z,14.8
2022-10-01T13:59:54.488Z,14.7
2022-10-01T14:01:00.657Z,14.7
2022-10-01T14:02:06.828Z,14.6
2022-10-01T14:03:12.010Z,14.6
2022-10-01T14:04:18.171Z,14.6
2022-10-01T14:05:24.348Z,14.6
2022-10-01T14:06:30.700Z,14.7
2022-10-01T14:07:36.752Z,14.7
2022-10-01T14:08:42.865Z,14.9
2022-10-01T14:09:49.059Z,14.9
2022-10-01T14:10:55.205Z,14.9
2022-10-01T14:12:01.420Z,14.9
2022-10-01T14:13:07.544Z,14.8
2022-10-01T14:14:13.708Z,14.9
2022-10-01T14:15:19.982Z,14.9
2022-10-01T14:16:26.184Z,14.9
2022-10-01T14:17:31.234Z,15
2022-10-01T14:18:37.503Z,14.9
2022-10-01T14:19:43.573Z,14.9
2022-10-01T14:20:49.748Z,15
2022-10-01T14:21:55.972Z,15
2022-10-01T14:23:02.166Z,15
2022-10-01T14:24:08.268Z,15.3
2022-10-01T14:25:14.436Z,15.6
2022-10-01T14:26:20.604Z,15.8
2022-10-01T14:27:26.781Z,15.9
2022-10-01T14:28:32.967Z,16.1
2022-10-01T14:29:39.119Z,16.2
2022-10-01T14:30:45.292Z,16.2
2022-10-01T14:31:50.474Z,16.3
2022-10-01T14:32:56.639Z,16.2
2022-10-01T14:34:02.803Z,16
2022-10-01T14:35:08.963Z,15.8
2022-10-01T14:36:15.141Z,15.6
2022-10-01T14:37:21.286Z,15.6
2022-10-01T14:38:27.441Z,15.7
2022-10-01T14:39:33.623Z,15.6
2022-10-01T14:40:39.769Z,15.7
2022-10-01T14:41:46.046Z,15.7
2022-10-01T14:42:52.092Z,15.7
2022-10-01T14:43:58.244Z,15.4
2022-10-01T14:45:04.415Z,15.2
2022-10-01T14:46:09.579Z,15.2
2022-10-01T14:47:15.751Z,15
2022-10-01T14:48:21.907Z,15
2022-10-01T14:49:28.101Z,15
2022-10-01T14:50:34.235Z,15.1
2022-10-01T14:51:40.408Z,15.1
2022-10-01T14:52:46.578Z,15.1
2022-10-01T14:53:52.767Z,15.1
2022-10-01T14:54:58.936Z,15.1
2022-10-01T14:56:05.071Z,15.1
2022-10-01T14:57:11.229Z,15
2022-10-01T14:58:17.402Z,15.1
2022-10-01T14:59:23.607Z,15.2